Time;durP1;ratioP1;P1;durP2;ratioP2;P2;SDS_P1;SDS_P2;PMS_P1;PMS_P2;Temp;Humidity;BMP_temperature;BMP_pressure;BME280_temperature;BME280_humidity;BME280_pressure;Samples;Min_cycle;Max_cycle;Signal;HPM_P1;HPM_P2
2023/02/22 00:00:58;;;;;;;15.13;9.82;;;6.00;99.90;;;;;;5070443;28;20052;-68
2023/02/22 00:03:31;;;;;;;14.70;9.63;;;6.00;99.90;;;;;;5058215;28;20483;-67
2023/02/22 00:06:03;;;;;;;15.77;8.98;;;6.00;99.90;;;;;;5053057;28;20048;-67
2023/02/22 00:08:35;;;;;;;13.73;9.35;;;6.00;99.90;;;;;;5070341;28;20041;-67
2023/02/22 00:11:09;;;;;;;15.30;9.60;;;5.90;99.90;;;;;;5056082;28;20068;-68
2023/02/22 00:13:37;;;;;;;15.65;8.77;;;5.90;99.90;;;;;;5050172;28;20048;-68
2023/02/22 00:16:05;;;;;;;14.13;8.55;;;6.00;99.90;;;;;;5048391;28;20036;-68
2023/02/22 00:18:33;;;;;;;13.60;8.55;;;5.90;99.90;;;;;;5056019;28;20132;-67
2023/02/22 00:21:00;;;;;;;15.23;8.55;;;5.90;99.90;;;;;;5070943;28;20066;-67
2023/02/22 00:23:30;;;;;;;14.20;8.27;;;5.90;99.90;;;;;;5062686;28;20099;-67
2023/02/22 00:25:59;;;;;;;12.88;8.43;;;5.90;99.90;;;;;;5071113;28;20033;-67
2023/02/22 00:28:26;;;;;;;12.85;8.25;;;5.80;99.90;;;;;;5087300;28;20037;-68
2023/02/22 00:30:54;;;;;;;16.38;9.25;;;5.80;99.90;;;;;;5071060;28;20118;-67
2023/02/22 00:33:22;;;;;;;13.05;8.88;;;5.80;99.90;;;;;;5071901;28;20060;-67
2023/02/22 00:35:50;;;;;;;12.35;8.23;;;5.70;99.90;;;;;;5082922;28;20119;-68
2023/02/22 00:38:18;;;;;;;13.20;7.90;;;5.70;99.90;;;;;;5063941;28;20491;-68
2023/02/22 00:40:45;;;;;;;13.30;8.27;;;5.60;99.90;;;;;;5044225;28;20041;-67
2023/02/22 00:43:13;;;;;;;14.25;8.43;;;5.60;99.90;;;;;;5070611;28;20036;-69
2023/02/22 00:45:41;;;;;;;13.23;8.77;;;5.60;99.90;;;;;;5071049;28;20032;-69
2023/02/22 00:48:09;;;;;;;12.02;8.25;;;5.50;99.90;;;;;;5070552;28;20490;-68
2023/02/22 00:50:36;;;;;;;13.68;7.90;;;5.50;99.90;;;;;;5061348;28;20439;-68
2023/02/22 00:53:06;;;;;;;14.35;8.23;;;5.50;99.90;;;;;;5085846;28;20487;-68
2023/02/22 00:55:35;;;;;;;12.15;8.52;;;5.40;99.90;;;;;;5070268;28;20044;-68
2023/02/22 00:58:04;;;;;;;13.82;8.90;;;5.40;99.90;;;;;;5071379;28;20040;-68
2023/02/22 01:00:38;;;;;;;14.27;8.35;;;5.30;99.90;;;;;;5047082;28;20495;-68
2023/02/22 01:03:09;;;;;;;13.82;8.45;;;5.30;99.90;;;;;;5040383;28;20041;-69
2023/02/22 01:05:37;;;;;;;14.23;8.02;;;5.20;99.90;;;;;;5069949;28;20125;-67
2023/02/22 01:08:07;;;;;;;13.52;7.82;;;5.20;99.90;;;;;;5063860;28;20048;-67
2023/02/22 01:10:36;;;;;;;11.73;7.72;;;5.20;99.90;;;;;;5059971;28;20060;-68
2023/02/22 01:13:07;;;;;;;13.13;8.35;;;5.20;99.90;;;;;;5070581;28;20503;-67
2023/02/22 01:15:37;;;;;;;11.20;8.03;;;5.20;99.90;;;;;;5069722;28;20415;-67
2023/02/22 01:18:06;;;;;;;13.82;7.70;;;5.20;99.90;;;;;;5070336;28;20498;-68
2023/02/22 01:20:33;;;;;;;12.32;8.32;;;5.20;99.90;;;;;;5069897;28;20044;-68
2023/02/22 01:23:02;;;;;;;14.93;8.55;;;5.20;99.90;;;;;;5086565;28;20140;-67
2023/02/22 01:25:30;;;;;;;14.05;8.48;;;5.20;99.90;;;;;;5069676;28;20033;-69
2023/02/22 01:28:00;;;;;;;13.82;8.82;;;5.20;99.90;;;;;;5070006;28;20096;-67
2023/02/22 01:30:31;;;;;;;11.48;7.85;;;5.20;99.90;;;;;;5069440;28;20041;-66
2023/02/22 01:33:00;;;;;;;;;;;5.30;99.90;;;;;;5071973;28;20066;-66
2023/02/22 01:35:30;;;;;;;14.25;7.80;;;5.20;99.90;;;;;;5053444;28;19927;-66
2023/02/22 01:37:58;;;;;;;11.70;8.25;;;5.20;99.90;;;;;;5071214;28;20359;-68
2023/02/22 01:40:37;;;;;;;14.35;8.25;;;5.20;99.90;;;;;;5045921;28;20515;-67
2023/02/22 01:43:19;;;;;;;13.43;8.73;;;5.20;99.90;;;;;;5053566;28;20049;-67
2023/02/22 01:45:53;;;;;;;13.07;8.40;;;5.10;99.90;;;;;;5087127;28;20048;-67
2023/02/22 01:48:27;;;;;;;12.77;8.25;;;5.10;99.90;;;;;;5086043;28;20554;-68
2023/02/22 01:50:59;;;;;;;12.35;7.88;;;5.10;99.90;;;;;;5059093;28;20048;-67
2023/02/22 01:53:41;;;;;;;13.52;8.73;;;5.10;99.90;;;;;;5070151;28;20490;-68
2023/02/22 01:56:08;;;;;;;13.52;8.27;;;5.10;99.90;;;;;;5065794;28;20456;-68
2023/02/22 01:58:39;;;;;;;12.95;8.23;;;5.10;99.90;;;;;;5060543;28;20128;-68
2023/02/22 02:01:08;;;;;;;13.60;8.95;;;5.00;99.90;;;;;;5052995;28;20147;-67
2023/02/22 02:03:37;;;;;;;11.32;7.65;;;5.00;99.90;;;;;;5059150;28;20049;-67
2023/02/22 02:06:10;;;;;;;10.95;8.05;;;5.00;99.90;;;;;;5042966;28;20053;-67
2023/02/22 02:09:13;;;;;;;15.57;8.82;;;5.00;99.90;;;;;;5059696;28;20064;-67
2023/02/22 02:11:41;;;;;;;13.85;8.43;;;5.00;99.90;;;;;;5042866;28;20414;-67
2023/02/22 02:14:10;;;;;;;12.75;8.77;;;5.00;99.90;;;;;;5069474;28;20051;-67
2023/02/22 02:16:49;;;;;;;14.95;8.15;;;4.90;99.90;;;;;;5070136;28;20049;-68
2023/02/22 02:19:38;;;;;;;12.15;8.07;;;4.90;99.90;;;;;;5057511;28;20495;-68
2023/02/22 02:22:29;;;;;;;16.48;8.55;;;4.90;99.90;;;;;;5058803;28;20041;-67
2023/02/22 02:25:03;;;;;;;13.60;9.03;;;4.90;99.90;;;;;;5030179;28;20121;-67
2023/02/22 02:28:04;;;;;;;14.35;8.68;;;4.90;99.90;;;;;;5051100;28;20041;-68
2023/02/22 02:31:05;;;;;;;14.18;9.07;;;4.90;99.90;;;;;;5016367;28;20065;-68
2023/02/22 02:33:37;;;;;;;13.57;8.57;;;4.80;99.90;;;;;;5023683;28;20192;-68
2023/02/22 02:36:33;;;;;;;13.40;8.38;;;4.80;99.90;;;;;;5002492;28;20116;-66
2023/02/22 02:39:13;;;;;;;14.25;9.52;;;4.80;99.90;;;;;;5020758;28;20053;-66
2023/02/22 02:41:48;;;;;;;12.85;8.85;;;4.70;99.90;;;;;;5010809;28;20046;-67
2023/02/22 02:44:36;;;;;;;14.30;8.95;;;4.70;99.90;;;;;;5009211;28;20523;-68
2023/02/22 02:47:13;;;;;;;16.58;8.63;;;4.60;99.90;;;;;;4994990;28;20069;-67
2023/02/22 02:49:53;;;;;;;14.90;8.82;;;4.60;99.90;;;;;;5007543;28;20037;-68
2023/02/22 02:52:23;;;;;;;13.57;8.45;;;4.60;99.90;;;;;;5008851;28;20506;-67
2023/02/22 02:54:52;;;;;;;13.55;8.77;;;4.60;99.90;;;;;;5004136;28;20052;-66
2023/02/22 02:57:20;;;;;;;16.70;9.07;;;4.50;99.90;;;;;;5011363;28;20358;-68
2023/02/22 02:59:48;;;;;;;12.75;8.30;;;4.60;99.90;;;;;;4993762;28;20491;-68
2023/02/22 03:02:30;;;;;;;11.63;8.48;;;4.50;99.90;;;;;;5011622;28;20115;-68
2023/02/22 03:05:10;;;;;;;;;;;4.50;99.90;;;;;;5013854;28;20570;-67
2023/02/22 03:08:12;;;;;;;12.98;8.20;;;4.50;99.90;;;;;;5023572;28;20427;-66
2023/02/22 03:11:13;;;;;;;21.73;9.23;;;4.40;99.90;;;;;;5056745;28;20941;-68
2023/02/22 03:14:20;;;;;;;13.13;8.70;;;4.40;99.90;;;;;;5031879;28;20084;-67
2023/02/22 03:17:00;;;;;;;12.57;8.38;;;4.40;99.90;;;;;;5047999;28;20124;-66
2023/02/22 03:19:47;;;;;;;14.27;8.38;;;4.30;99.90;;;;;;5033126;28;20056;-67
2023/02/22 03:22:25;;;;;;;14.27;8.82;;;4.30;99.90;;;;;;5012177;28;20108;-68
2023/02/22 03:25:05;;;;;;;11.73;7.55;;;4.30;99.90;;;;;;5032368;28;20519;-65
2023/02/22 03:27:47;;;;;;;12.73;8.27;;;4.30;99.90;;;;;;5035283;28;20110;-68
2023/02/22 03:30:25;;;;;;;13.18;8.30;;;4.30;99.90;;;;;;5034259;28;20057;-67
2023/02/22 03:33:07;;;;;;;14.88;9.48;;;4.30;99.90;;;;;;5050386;28;20056;-68
2023/02/22 03:35:43;;;;;;;13.93;8.10;;;4.30;99.90;;;;;;5048996;28;20056;-68
2023/02/22 03:38:14;;;;;;;14.05;8.32;;;4.30;99.90;;;;;;5051068;28;20500;-67
2023/02/22 03:40:47;;;;;;;13.52;9.63;;;4.30;99.90;;;;;;5050149;28;20050;-68
2023/02/22 03:43:20;;;;;;;15.40;8.20;;;4.30;99.90;;;;;;5018507;28;20413;-68
2023/02/22 03:45:49;;;;;;;13.50;8.20;;;4.30;99.90;;;;;;5032999;28;20102;-67
2023/02/22 03:48:30;;;;;;;13.73;8.35;;;4.30;99.90;;;;;;5050054;28;20518;-68
2023/02/22 03:51:03;;;;;;;15.48;8.65;;;4.30;99.90;;;;;;5030557;28;20500;-67
2023/02/22 03:53:33;;;;;;;12.73;8.80;;;4.30;99.90;;;;;;5030277;28;20202;-68
2023/02/22 03:56:07;;;;;;;11.73;7.70;;;4.30;99.90;;;;;;5015083;28;20086;-67
2023/02/22 03:58:36;;;;;;;12.73;8.15;;;4.30;99.90;;;;;;5030642;28;20051;-67
2023/02/22 04:01:03;;;;;;;12.40;8.55;;;4.30;99.90;;;;;;5031280;28;20046;-67
2023/02/22 04:03:31;;;;;;;15.07;9.00;;;4.30;99.90;;;;;;5030620;28;20041;-67
2023/02/22 04:05:58;;;;;;;15.30;9.13;;;4.30;99.90;;;;;;5031661;28;20041;-67
2023/02/22 04:08:25;;;;;;;14.40;8.68;;;4.30;99.90;;;;;;5014920;28;20456;-67
2023/02/22 04:10:53;;;;;;;14.63;8.75;;;4.30;99.90;;;;;;5049346;28;20179;-67
2023/02/22 04:13:23;;;;;;;12.88;8.63;;;4.30;99.90;;;;;;5065969;28;20458;-66
2023/02/22 04:15:53;;;;;;;14.90;9.23;;;4.30;99.90;;;;;;5048858;28;20044;-67
2023/02/22 04:18:20;;;;;;;13.95;8.93;;;4.30;99.90;;;;;;5050449;28;20751;-67
2023/02/22 04:20:48;;;;;;;14.73;8.85;;;4.30;99.90;;;;;;5049093;28;20056;-67
2023/02/22 04:23:45;;;;;;;12.15;8.15;;;4.30;99.90;;;;;;5035192;28;20302;-67
2023/02/22 04:26:12;;;;;;;14.15;8.88;;;4.30;99.90;;;;;;5045145;28;20037;-65
2023/02/22 04:28:42;;;;;;;14.85;8.60;;;4.20;99.90;;;;;;5050360;28;20041;-66
2023/02/22 04:31:14;;;;;;;16.02;9.10;;;4.20;99.90;;;;;;5049194;28;20090;-67
2023/02/22 04:33:43;;;;;;;15.35;9.00;;;4.20;99.90;;;;;;5046939;28;20050;-67
2023/02/22 04:36:14;;;;;;;15.27;9.18;;;4.10;99.90;;;;;;5043031;28;20069;-67
2023/02/22 04:38:43;;;;;;;11.70;8.35;;;4.10;99.90;;;;;;5048637;28;20107;-67
2023/02/22 04:41:11;;;;;;;12.13;8.40;;;4.00;99.90;;;;;;5024043;28;20055;-67
2023/02/22 04:43:39;;;;;;;15.93;9.20;;;4.00;99.90;;;;;;5044473;28;20122;-67
2023/02/22 04:46:19;;;;;;;14.98;9.15;;;4.00;99.90;;;;;;5049691;28;20106;-67
2023/02/22 04:48:47;;;;;;;13.38;8.50;;;4.00;99.90;;;;;;5043010;28;20119;-68
2023/02/22 04:51:16;;;;;;;14.95;9.55;;;4.00;99.90;;;;;;5013221;28;20469;-66
2023/02/22 04:53:53;;;;;;;13.68;8.48;;;4.00;99.90;;;;;;5029638;28;20042;-66
2023/02/22 04:56:21;;;;;;;13.95;8.70;;;3.90;99.90;;;;;;5028274;28;20164;-66
2023/02/22 04:58:48;;;;;;;18.15;10.80;;;3.90;99.90;;;;;;5045650;28;20045;-66
2023/02/22 05:01:16;;;;;;;19.92;11.57;;;3.90;99.90;;;;;;5044772;28;20038;-67
2023/02/22 05:03:45;;;;;;;20.13;12.18;;;3.90;99.90;;;;;;5012934;28;20476;-66
2023/02/22 05:06:12;;;;;;;19.17;12.52;;;3.90;99.90;;;;;;5030391;28;20041;-66
2023/02/22 05:08:40;;;;;;;17.15;10.45;;;3.90;99.90;;;;;;5031433;28;20037;-66
2023/02/22 05:11:07;;;;;;;18.10;10.25;;;3.90;99.90;;;;;;5042077;28;20037;-68
2023/02/22 05:13:34;;;;;;;20.77;11.30;;;3.90;99.90;;;;;;5048359;28;20076;-70
2023/02/22 05:16:02;;;;;;;18.80;11.18;;;3.90;99.90;;;;;;5048353;28;20053;-68
2023/02/22 05:18:30;;;;;;;16.17;11.00;;;3.90;99.90;;;;;;5038313;28;20095;-66
2023/02/22 05:20:57;;;;;;;17.70;11.07;;;3.90;99.90;;;;;;5044230;28;20041;-66
2023/02/22 05:23:24;;;;;;;19.13;10.88;;;3.90;99.90;;;;;;5035936;28;20427;-67
2023/02/22 05:25:51;;;;;;;16.65;10.27;;;3.90;99.90;;;;;;5030008;28;20385;-67
2023/02/22 05:28:19;;;;;;;14.05;9.30;;;3.90;99.90;;;;;;5052364;28;20556;-67
2023/02/22 05:30:46;;;;;;;12.70;8.93;;;3.90;99.90;;;;;;5029993;28;20068;-66
2023/02/22 05:33:13;;;;;;;15.40;9.20;;;3.90;99.90;;;;;;5044045;28;20090;-67
2023/02/22 05:35:41;;;;;;;13.65;8.77;;;3.90;99.90;;;;;;5050603;28;20069;-67
2023/02/22 05:38:13;;;;;;;16.13;9.50;;;3.90;99.90;;;;;;5050332;28;20041;-66
2023/02/22 05:40:42;;;;;;;15.73;9.45;;;3.90;99.90;;;;;;5033414;28;20427;-68
2023/02/22 05:43:09;;;;;;;12.85;8.10;;;3.90;99.90;;;;;;5050656;28;20160;-66
2023/02/22 05:45:37;;;;;;;12.52;8.52;;;3.90;99.90;;;;;;5047318;28;20128;-68
2023/02/22 05:48:04;;;;;;;13.07;8.10;;;3.90;99.90;;;;;;5035866;28;20040;-67
2023/02/22 05:50:32;;;;;;;11.93;8.02;;;3.90;99.90;;;;;;5028861;28;20579;-66
2023/02/22 05:53:00;;;;;;;14.18;8.82;;;3.90;99.90;;;;;;5045975;28;20467;-66
2023/02/22 05:55:27;;;;;;;14.25;9.45;;;3.90;99.90;;;;;;5043150;28;20519;-65
2023/02/22 05:57:55;;;;;;;15.82;9.95;;;3.90;99.90;;;;;;5049617;28;20052;-68
2023/02/22 06:00:27;;;;;;;15.07;9.25;;;3.90;99.90;;;;;;5048140;28;20514;-66
2023/02/22 06:02:55;;;;;;;14.48;9.25;;;3.90;99.90;;;;;;5049466;28;20037;-67
2023/02/22 06:05:22;;;;;;;13.90;8.00;;;3.90;99.90;;;;;;5063838;28;20040;-67
2023/02/22 06:07:51;;;;;;;12.05;7.80;;;3.90;99.90;;;;;;5074371;28;20483;-66
2023/02/22 06:10:19;;;;;;;13.93;8.57;;;3.90;99.90;;;;;;5054227;28;20575;-67
2023/02/22 06:12:48;;;;;;;13.50;8.68;;;3.90;99.90;;;;;;5058268;28;20459;-68
2023/02/22 06:15:16;;;;;;;14.23;8.43;;;3.90;99.90;;;;;;5067723;28;20052;-66
2023/02/22 06:17:44;;;;;;;11.93;8.00;;;3.90;99.90;;;;;;5074061;28;20063;-68
2023/02/22 06:20:14;;;;;;;13.75;7.65;;;3.90;99.90;;;;;;5069377;28;20430;-68
2023/02/22 06:22:41;;;;;;;11.45;7.82;;;3.90;99.90;;;;;;5054137;28;20526;-67
2023/02/22 06:25:09;;;;;;;12.80;8.10;;;4.00;99.90;;;;;;5058836;28;20518;-67
2023/02/22 06:27:36;;;;;;;12.88;7.13;;;4.00;99.90;;;;;;5066744;28;20044;-68
2023/02/22 06:30:04;;;;;;;13.15;7.63;;;4.00;99.90;;;;;;5068664;28;20480;-67
2023/02/22 06:32:31;;;;;;;13.52;8.05;;;4.00;99.90;;;;;;5054030;28;20856;-68
2023/02/22 06:34:59;;;;;;;12.40;7.32;;;4.00;99.90;;;;;;5068316;28;20091;-66
2023/02/22 06:37:26;;;;;;;12.88;8.00;;;4.10;99.90;;;;;;5048095;28;20056;-67
2023/02/22 06:39:53;;;;;;;13.50;8.93;;;4.10;99.90;;;;;;5071845;28;20386;-67
2023/02/22 06:42:20;;;;;;;12.93;8.57;;;4.20;99.90;;;;;;5054312;28;20652;-68
2023/02/22 06:44:48;;;;;;;20.42;9.77;;;4.20;99.90;;;;;;5058133;28;20045;-67
2023/02/22 06:47:17;;;;;;;15.52;9.23;;;4.30;99.90;;;;;;5069637;28;20134;-67
2023/02/22 06:49:50;;;;;;;11.75;7.38;;;4.40;99.90;;;;;;5052015;28;20048;-67
2023/02/22 06:52:17;;;;;;;12.82;7.68;;;4.40;99.90;;;;;;5053668;28;20465;-67
2023/02/22 06:54:45;;;;;;;11.15;6.57;;;4.50;99.90;;;;;;5055820;28;20036;-68
2023/02/22 06:57:12;;;;;;;12.05;7.40;;;4.50;99.90;;;;;;5073657;28;20495;-68
2023/02/22 06:59:39;;;;;;;13.38;7.78;;;4.60;99.90;;;;;;5071926;28;20542;-67
2023/02/22 07:02:08;;;;;;;11.82;7.25;;;4.70;99.90;;;;;;5073688;28;20048;-68
2023/02/22 07:04:35;;;;;;;11.13;7.20;;;4.80;99.90;;;;;;5069360;28;20037;-69
2023/02/22 07:07:03;;;;;;;10.50;6.78;;;4.90;99.90;;;;;;5061481;28;20508;-68
2023/02/22 07:09:31;;;;;;;11.32;7.45;;;5.00;99.90;;;;;;5058902;28;20506;-68
2023/02/22 07:11:58;;;;;;;12.70;7.75;;;5.00;99.90;;;;;;5035000;28;20164;-69
2023/02/22 07:14:26;;;;;;;12.55;7.70;;;5.10;99.90;;;;;;5051165;28;20048;-68
2023/02/22 07:16:53;;;;;;;16.70;7.90;;;5.20;99.90;;;;;;5052256;28;20409;-67
2023/02/22 07:19:20;;;;;;;14.82;8.85;;;5.20;99.90;;;;;;5054991;28;20094;-67
2023/02/22 07:21:47;;;;;;;11.90;7.63;;;5.30;99.90;;;;;;5071769;28;20048;-70
2023/02/22 07:24:15;;;;;;;13.25;7.82;;;5.40;99.90;;;;;;5072946;28;20029;-67
2023/02/22 07:26:42;;;;;;;12.98;8.10;;;5.50;99.90;;;;;;5054608;28;20069;-68
2023/02/22 07:29:10;;;;;;;12.38;7.43;;;5.50;99.90;;;;;;5069718;28;20044;-66
2023/02/22 07:31:38;;;;;;;12.13;7.65;;;5.60;99.90;;;;;;5054529;28;20118;-68
2023/02/22 07:34:05;;;;;;;10.88;7.00;;;5.70;99.90;;;;;;5072646;28;20475;-67
2023/02/22 07:36:33;;;;;;;12.32;7.47;;;5.80;99.90;;;;;;5073235;28;20044;-67
2023/02/22 07:39:00;;;;;;;12.27;7.82;;;5.90;99.90;;;;;;5071134;28;20094;-66
2023/02/22 07:41:27;;;;;;;14.52;8.13;;;6.00;99.90;;;;;;5055310;28;20452;-67
2023/02/22 07:43:54;;;;;;;17.85;10.45;;;6.10;99.90;;;;;;5046836;28;20048;-68
2023/02/22 07:46:22;;;;;;;14.93;7.63;;;6.20;99.90;;;;;;5085923;28;20037;-67
2023/02/22 07:48:49;;;;;;;16.17;8.90;;;6.40;99.90;;;;;;5063325;28;20060;-67
2023/02/22 07:51:19;;;;;;;14.20;7.97;;;6.40;99.90;;;;;;5045064;28;20514;-67
2023/02/22 07:53:47;;;;;;;20.15;11.38;;;6.50;99.90;;;;;;5034927;28;20053;-67
2023/02/22 07:56:16;;;;;;;18.80;11.32;;;6.70;99.90;;;;;;5036677;28;20496;-67
2023/02/22 07:58:44;;;;;;;18.17;9.63;;;6.80;99.90;;;;;;5043543;28;20064;-67
2023/02/22 08:01:11;;;;;;;16.50;8.57;;;6.70;99.90;;;;;;5049127;28;20041;-67
2023/02/22 08:03:38;;;;;;;12.15;7.93;;;6.80;99.90;;;;;;5050077;28;20068;-67
2023/02/22 08:06:06;;;;;;;11.30;7.70;;;6.90;99.90;;;;;;5041893;28;20049;-67
2023/02/22 08:08:34;;;;;;;13.18;8.35;;;7.00;99.90;;;;;;5046417;28;20045;-67
2023/02/22 08:11:01;;;;;;;13.27;8.90;;;7.10;99.90;;;;;;5045502;28;20045;-69
2023/02/22 08:13:29;;;;;;;14.57;8.68;;;7.30;99.90;;;;;;5030870;28;20049;-67
2023/02/22 08:15:56;;;;;;;15.30;9.20;;;7.30;99.90;;;;;;5029866;28;20508;-67
2023/02/22 08:18:24;;;;;;;11.85;7.88;;;7.40;99.90;;;;;;5029240;28;20155;-67
2023/02/22 08:20:52;;;;;;;15.55;8.93;;;7.40;99.90;;;;;;5031864;28;20069;-68
2023/02/22 08:23:22;;;;;;;11.10;8.07;;;7.50;99.90;;;;;;5044163;28;20148;-67
2023/02/22 08:25:49;;;;;;;11.82;6.88;;;7.60;99.90;;;;;;5051761;28;20083;-67
2023/02/22 08:28:21;;;;;;;17.10;8.18;;;7.80;99.90;;;;;;5039080;28;20044;-68
2023/02/22 08:30:48;;;;;;;;;;;7.90;99.90;;;;;;5050343;28;20053;-67
2023/02/22 08:33:18;;;;;;;15.30;8.10;;;8.00;99.90;;;;;;5040175;28;20241;-67
2023/02/22 08:35:48;;;;;;;14.63;8.15;;;8.10;99.90;;;;;;5048211;28;20086;-68
2023/02/22 08:38:26;;;;;;;12.18;8.35;;;8.40;99.90;;;;;;5050391;28;20047;-66
2023/02/22 08:40:53;;;;;;;15.63;9.48;;;8.50;99.90;;;;;;5057175;28;20524;-68
2023/02/22 08:43:21;;;;;;;13.13;8.68;;;8.70;99.90;;;;;;5039185;28;20053;-67
2023/02/22 08:45:50;;;;;;;16.85;8.80;;;8.90;99.90;;;;;;5043025;28;20037;-66
2023/02/22 08:48:19;;;;;;;20.15;9.95;;;9.10;99.90;;;;;;5046200;28;20047;-69
2023/02/22 08:50:46;;;;;;;17.35;10.95;;;9.20;99.90;;;;;;5048283;28;20127;-68
2023/02/22 08:53:15;;;;;;;19.15;10.85;;;9.20;99.90;;;;;;5049486;28;20487;-68
2023/02/22 08:55:43;;;;;;;20.25;11.80;;;9.40;99.90;;;;;;5048089;28;20037;-68
2023/02/22 08:58:10;;;;;;;21.15;12.82;;;9.50;99.90;;;;;;5053128;28;20494;-68
2023/02/22 09:00:40;;;;;;;21.40;13.85;;;9.70;99.90;;;;;;5046453;28;20049;-69
2023/02/22 09:03:12;;;;;;;20.15;12.02;;;9.80;99.90;;;;;;5053061;28;20084;-68
2023/02/22 09:05:40;;;;;;;22.55;12.77;;;10.00;99.90;;;;;;5053052;28;20076;-67
2023/02/22 09:08:08;;;;;;;16.33;10.50;;;10.00;99.90;;;;;;5051428;28;20049;-68
2023/02/22 09:10:37;;;;;;;16.30;10.65;;;10.10;99.90;;;;;;5047102;28;20360;-66
2023/02/22 09:13:05;;;;;;;19.67;11.77;;;10.30;99.90;;;;;;5051058;28;20330;-68
2023/02/22 09:15:37;;;;;;;18.02;10.30;;;10.50;99.90;;;;;;5048469;28;20041;-69
2023/02/22 09:18:07;;;;;;;;;;;10.70;99.90;;;;;;5034149;28;20065;-67
2023/02/22 09:20:35;;;;;;;18.55;10.68;;;11.00;99.90;;;;;;5046603;28;20278;-66
2023/02/22 09:23:06;;;;;;;17.27;10.75;;;11.20;99.90;;;;;;5049248;28;20160;-68
2023/02/22 09:25:33;;;;;;;17.00;11.00;;;11.30;99.90;;;;;;5048627;28;20041;-66
2023/02/22 09:28:01;;;;;;;17.70;11.70;;;11.40;99.90;;;;;;5050926;28;20040;-67
2023/02/22 09:30:35;;;;;;;20.60;12.13;;;11.50;99.90;;;;;;5052827;28;20045;-66
2023/02/22 09:33:10;;;;;;;17.17;10.10;;;11.60;99.90;;;;;;5049606;28;20440;-67
2023/02/22 09:35:41;;;;;;;17.15;11.82;;;11.60;99.90;;;;;;5039505;28;20517;-67
2023/02/22 09:38:09;;;;;;;19.98;11.20;;;11.70;99.90;;;;;;5049034;28;20057;-66
2023/02/22 09:40:43;;;;;;;16.33;11.35;;;11.80;99.90;;;;;;5042991;28;20041;-67
2023/02/22 09:43:31;;;;;;;17.98;11.82;;;12.10;99.90;;;;;;5038219;28;20041;-68
2023/02/22 09:46:01;;;;;;;16.83;10.38;;;12.30;99.90;;;;;;5039665;28;20037;-66
2023/02/22 09:48:35;;;;;;;11.50;8.90;;;12.50;99.90;;;;;;5040526;28;20064;-68
2023/02/22 09:51:09;;;;;;;16.92;10.55;;;12.50;99.90;;;;;;5039368;28;20083;-67
2023/02/22 09:53:44;;;;;;;15.85;10.50;;;12.50;99.90;;;;;;5054598;28;20033;-66
2023/02/22 09:56:16;;;;;;;13.57;9.77;;;12.50;99.90;;;;;;5086145;28;20047;-68
2023/02/22 09:58:47;;;;;;;14.65;10.43;;;12.40;99.90;;;;;;5070346;28;20123;-66
2023/02/22 10:01:39;;;;;;;17.13;10.30;;;12.50;99.90;;;;;;5069172;28;20541;-68
2023/02/22 10:04:12;;;;;;;14.02;10.13;;;12.50;99.90;;;;;;5044587;28;20131;-66
2023/02/22 10:06:54;;;;;;;14.82;9.77;;;12.70;99.90;;;;;;5041330;28;20037;-68
2023/02/22 10:09:26;;;;;;;18.33;10.93;;;12.90;99.90;;;;;;5049552;28;20128;-65
2023/02/22 10:12:09;;;;;;;15.50;10.05;;;13.10;99.90;;;;;;5048900;28;20077;-67
2023/02/22 10:14:54;;;;;;;13.52;9.23;;;13.20;99.90;;;;;;5050834;28;20132;-67
2023/02/22 10:17:33;;;;;;;11.88;8.82;;;13.40;99.90;;;;;;5049329;28;20140;-67
2023/02/22 10:20:27;;;;;;;13.77;9.02;;;13.60;99.90;;;;;;5048330;28;20137;-66
2023/02/22 10:23:15;;;;;;;13.02;8.98;;;13.80;99.90;;;;;;5049772;28;20055;-67
2023/02/22 10:25:47;;;;;;;13.60;9.73;;;14.00;99.90;;;;;;5049357;28;20135;-67
2023/02/22 10:28:23;;;;;;;13.95;9.40;;;14.20;99.90;;;;;;5037196;28;20041;-65
2023/02/22 10:30:57;;;;;;;13.50;8.85;;;14.30;99.90;;;;;;5032642;28;20437;-67
2023/02/22 10:33:38;;;;;;;13.55;9.63;;;14.50;99.90;;;;;;5039435;28;20500;-66
2023/02/22 10:36:13;;;;;;;13.88;9.30;;;14.70;99.90;;;;;;5040358;28;20060;-66
2023/02/22 10:38:47;;;;;;;13.35;10.00;;;14.70;99.90;;;;;;5040324;28;20518;-66
2023/02/22 10:41:33;;;;;;;11.48;8.93;;;14.70;99.90;;;;;;5044535;28;20045;-66
2023/02/22 10:44:01;;;;;;;12.73;8.95;;;14.60;99.90;;;;;;5050392;28;20060;-66
2023/02/22 10:46:30;;;;;;;12.00;8.23;;;14.90;99.90;;;;;;5051191;28;20112;-67
2023/02/22 10:49:06;;;;;;;11.35;8.05;;;15.10;99.90;;;;;;5049312;28;20038;-66
2023/02/22 10:51:34;;;;;;;12.57;8.50;;;15.30;99.90;;;;;;5048392;28;20507;-67
2023/02/22 10:54:13;;;;;;;13.10;8.50;;;15.50;99.90;;;;;;5050270;28;20163;-66
2023/02/22 10:56:47;;;;;;;11.45;8.07;;;15.60;99.90;;;;;;5050863;28;20038;-66
2023/02/22 10:59:32;;;;;;;11.00;8.57;;;15.90;99.90;;;;;;5047906;28;20049;-66
2023/02/22 11:02:07;;;;;;;11.75;8.35;;;16.30;99.90;;;;;;5050870;28;20056;-66
2023/02/22 11:04:53;;;;;;;9.65;7.88;;;16.60;99.90;;;;;;5052546;28;20094;-66
2023/02/22 11:07:28;;;;;;;11.38;7.65;;;16.80;99.90;;;;;;5048592;28;20077;-67
2023/02/22 11:09:59;;;;;;;10.65;8.30;;;17.10;99.90;;;;;;5039779;28;20072;-67
2023/02/22 11:12:36;;;;;;;9.63;7.57;;;17.50;99.90;;;;;;5047771;28;20067;-67
2023/02/22 11:15:15;;;;;;;11.80;8.18;;;17.40;99.90;;;;;;5049153;28;20048;-68
2023/02/22 11:17:45;;;;;;;9.88;7.78;;;17.70;99.90;;;;;;5047050;28;20158;-68
2023/02/22 11:20:25;;;;;;;11.18;7.93;;;17.80;99.90;;;;;;5033186;28;20467;-66
2023/02/22 11:23:04;;;;;;;11.90;8.45;;;17.70;99.90;;;;;;5032075;28;20388;-67
2023/02/22 11:25:34;;;;;;;9.70;7.63;;;18.00;99.90;;;;;;5032312;28;20037;-67
2023/02/22 11:28:19;;;;;;;10.13;7.63;;;18.30;99.90;;;;;;5036640;28;20085;-67
2023/02/22 11:30:50;;;;;;;11.80;8.38;;;18.40;99.90;;;;;;5030725;28;20476;-66
2023/02/22 11:33:24;;;;;;;12.13;8.80;;;18.50;99.90;;;;;;5029878;28;20046;-67
2023/02/22 11:35:53;;;;;;;14.60;8.07;;;18.60;99.90;;;;;;5030735;28;20049;-67
2023/02/22 11:38:51;;;;;;;9.48;7.82;;;18.60;99.90;;;;;;5029974;28;20539;-65
2023/02/22 11:41:26;;;;;;;10.50;8.27;;;18.60;99.90;;;;;;5030736;28;20419;-67
2023/02/22 11:43:53;;;;;;;10.80;7.90;;;18.60;99.90;;;;;;5041827;28;20052;-67
2023/02/22 11:46:29;;;;;;;11.98;8.43;;;18.70;99.90;;;;;;5051932;28;20127;-66
2023/02/22 11:49:03;;;;;;;13.00;7.95;;;18.50;99.90;;;;;;5036397;28;20042;-67
2023/02/22 11:51:33;;;;;;;9.98;8.00;;;18.30;99.90;;;;;;5031992;28;20045;-66
2023/02/22 11:54:24;;;;;;;11.07;9.25;;;18.70;99.90;;;;;;5047583;28;20353;-67
2023/02/22 11:57:06;;;;;;;10.40;7.88;;;19.10;99.90;;;;;;5045645;28;20063;-68
2023/02/22 11:59:36;;;;;;;11.00;8.13;;;19.30;99.90;;;;;;5050547;28;20410;-67
2023/02/22 12:02:26;;;;;;;10.95;8.13;;;19.60;99.90;;;;;;5051195;28;20060;-66
2023/02/22 12:05:17;;;;;;;9.55;8.00;;;19.80;99.90;;;;;;5051304;28;20454;-67
2023/02/22 12:08:13;;;;;;;10.43;7.55;;;19.70;99.90;;;;;;5050237;28;20412;-67
2023/02/22 12:11:05;;;;;;;8.75;7.32;;;19.70;99.90;;;;;;5046964;28;20037;-68
2023/02/22 12:14:08;;;;;;;12.90;8.35;;;20.50;99.90;;;;;;5030044;28;20052;-67
2023/02/22 12:17:01;;;;;;;10.43;7.43;;;21.50;99.90;;;;;;5008310;28;20054;-67
2023/02/22 12:19:44;;;;;;;8.25;7.07;;;22.20;99.90;;;;;;5009004;28;20084;-67
2023/02/22 12:22:20;;;;;;;8.95;7.80;;;22.40;99.90;;;;;;5009371;28;20568;-67
2023/02/22 12:24:59;;;;;;;12.30;8.20;;;22.40;99.90;;;;;;4992339;28;20060;-67
2023/02/22 12:27:51;;;;;;;10.65;8.43;;;22.10;99.90;;;;;;5007585;28;20493;-67
2023/02/22 12:30:35;;;;;;;10.65;8.15;;;21.50;99.90;;;;;;5008323;28;20505;-66
2023/02/22 12:33:10;;;;;;;10.45;7.43;;;21.40;99.90;;;;;;4993762;28;20121;-67
2023/02/22 12:35:42;;;;;;;9.48;7.55;;;21.50;99.90;;;;;;4992222;28;20533;-67
2023/02/22 12:38:30;;;;;;;7.90;7.10;;;21.70;99.90;;;;;;5008978;28;20508;-67
2023/02/22 12:41:07;;;;;;;12.30;8.30;;;22.30;99.90;;;;;;5008885;28;20038;-68
2023/02/22 12:43:46;;;;;;;10.52;7.95;;;22.70;99.90;;;;;;5007477;28;20480;-66
2023/02/22 12:46:20;;;;;;;9.35;7.65;;;23.30;99.90;;;;;;5007493;28;20088;-66
2023/02/22 12:49:16;;;;;;;8.43;7.55;;;24.30;99.90;;;;;;5008230;28;20046;-67
2023/02/22 12:52:05;;;;;;;8.60;7.25;;;24.80;99.90;;;;;;5029358;28;20721;-67
2023/02/22 12:55:06;;;;;;;7.88;7.07;;;25.30;99.90;;;;;;5031318;28;20041;-67
2023/02/22 12:57:47;;;;;;;9.02;7.38;;;25.70;99.90;;;;;;5030048;28;20448;-67
2023/02/22 13:00:25;;;;;;;;;;;26.20;99.90;;;;;;5030531;28;20523;-68
2023/02/22 13:03:13;;;;;;;9.98;8.52;;;27.10;99.70;;;;;;5041208;28;19920;-68
2023/02/22 13:05:42;;;;;;;8.30;7.20;;;27.70;97.20;;;;;;5034615;28;20526;-68
2023/02/22 13:08:29;;;;;;;8.68;7.55;;;27.70;95.70;;;;;;5028313;28;20045;-66
2023/02/22 13:11:08;;;;;;;8.25;7.45;;;27.90;94.60;;;;;;5036268;28;20483;-66
2023/02/22 13:13:54;;;;;;;9.93;8.05;;;28.50;94.10;;;;;;5030749;28;20384;-66
2023/02/22 13:16:44;;;;;;;10.30;9.30;;;28.70;91.90;;;;;;5042373;28;20442;-65